sensor_id;sensor_type;location;lat;lon;timestamp;temperature;humidity
23188;DHT22;11762;59.878;17.686;2022-10-31T00:00:08;5.50;99.90
23188;DHT22;11762;59.878;17.686;2022-10-31T00:02:57;5.50;99.90
23188;DHT22;11762;59.878;17.686;2022-10-31T00:05:46;5.50;99.90
23188;DHT22;11762;59.878;17.686;2022-10-31T00:08:34;5.50;99.90
23188;DHT22;11762;59.878;17.686;2022-10-31T00:11:21;5.40;99.90
23188;DHT22;11762;59.878;17.686;2022-10-31T00:14:09;5.40;99.90
23188;DHT22;11762;59.878;17.686;2022-10-31T00:16:57;5.40;99.90
23188;DHT22;11762;59.878;17.686;2022-10-31T00:19:45;5.30;99.90
23188;DHT22;11762;59.878;17.686;2022-10-31T00:22:32;5.30;99.90
23188;DHT22;11762;59.878;17.686;2022-10-31T00:25:19;5.30;99.90
23188;DHT22;11762;59.878;17.686;2022-10-31T00:28:09;5.20;99.90
23188;DHT22;11762;59.878;17.686;2022-10-31T00:30:59;5.10;99.90
23188;DHT22;11762;59.878;17.686;2022-10-31T00:33:48;5.10;99.90
23188;DHT22;11762;59.878;17.686;2022-10-31T00:36:35;5.10;99.90
23188;DHT22;11762;59.878;17.686;2022-10-31T00:39:22;5.00;99.90
23188;DHT22;11762;59.878;17.686;2022-10-31T00:42:10;5.10;99.90
23188;DHT22;11762;59.878;17.686;2022-10-31T00:44:57;5.00;99.90
23188;DHT22;11762;59.878;17.686;2022-10-31T00:47:44;5.00;99.90
23188;DHT22;11762;59.878;17.686;2022-10-31T00:50:33;5.00;99.90
23188;DHT22;11762;59.878;17.686;2022-10-31T00:53:20;4.90;99.90
23188;DHT22;11762;59.878;17.686;2022-10-31T00:56:08;4.90;99.90
23188;DHT22;11762;59.878;17.686;2022-10-31T00:58:55;4.90;99.90
23188;DHT22;11762;59.878;17.686;2022-10-31T01:01:42;4.90;99.90
23188;DHT22;11762;59.878;17.686;2022-10-31T01:04:30;4.80;99.90
23188;DHT22;11762;59.878;17.686;2022-10-31T01:07:18;4.80;99.90
23188;DHT22;11762;59.878;17.686;2022-10-31T01:10:07;4.80;99.90
23188;DHT22;11762;59.878;17.686;2022-10-31T01:12:54;4.80;99.90
23188;DHT22;11762;59.878;17.686;2022-10-31T01:15:42;4.80;99.90
23188;DHT22;11762;59.878;17.686;2022-10-31T01:18:29;4.80;99.90
23188;DHT22;11762;59.878;17.686;2022-10-31T01:21:18;4.80;99.90
23188;DHT22;11762;59.878;17.686;2022-10-31T01:24:08;4.80;99.90
23188;DHT22;11762;59.878;17.686;2022-10-31T01:26:55;4.80;99.90
23188;DHT22;11762;59.878;17.686;2022-10-31T01:29:43;4.90;99.90
23188;DHT22;11762;59.878;17.686;2022-10-31T01:32:30;4.80;99.90
23188;DHT22;11762;59.878;17.686;2022-10-31T01:35:18;4.60;99.90
23188;DHT22;11762;59.878;17.686;2022-10-31T01:38:05;4.50;99.90
23188;DHT22;11762;59.878;17.686;2022-10-31T01:40:54;4.40;99.90
23188;DHT22;11762;59.878;17.686;2022-10-31T01:43:50;4.20;99.90
23188;DHT22;11762;59.878;17.686;2022-10-31T01:46:38;3.90;99.90
23188;DHT22;11762;59.878;17.686;2022-10-31T01:49:33;3.90;99.90
23188;DHT22;11762;59.878;17.686;2022-10-31T01:52:24;3.90;99.90
23188;DHT22;11762;59.878;17.686;2022-10-31T01:55:15;3.90;99.90
23188;DHT22;11762;59.878;17.686;2022-10-31T01:58:08;3.90;99.90
23188;DHT22;11762;59.878;17.686;2022-10-31T02:00:58;4.00;99.90
23188;DHT22;11762;59.878;17.686;2022-10-31T02:03:47;4.10;99.90
23188;DHT22;11762;59.878;17.686;2022-10-31T02:06:38;4.20;99.90
23188;DHT22;11762;59.878;17.686;2022-10-31T02:09:27;4.30;99.90
23188;DHT22;11762;59.878;17.686;2022-10-31T02:12:16;4.40;99.90
23188;DHT22;11762;59.878;17.686;2022-10-31T02:15:07;4.40;99.90
23188;DHT22;11762;59.878;17.686;2022-10-31T02:17:55;4.50;99.90
23188;DHT22;11762;59.878;17.686;2022-10-31T02:20:50;4.50;99.90
23188;DHT22;11762;59.878;17.686;2022-10-31T02:24:11;4.60;99.90
23188;DHT22;11762;59.878;17.686;2022-10-31T02:27:19;4.60;99.90
23188;DHT22;11762;59.878;17.686;2022-10-31T02:30:14;4.60;99.90
23188;DHT22;11762;59.878;17.686;2022-10-31T02:33:16;4.60;99.90
23188;DHT22;11762;59.878;17.686;2022-10-31T02:36:10;4.60;99.90
23188;DHT22;11762;59.878;17.686;2022-10-31T02:39:06;4.60;99.90
23188;DHT22;11762;59.878;17.686;2022-10-31T02:42:02;4.70;99.90
23188;DHT22;11762;59.878;17.686;2022-10-31T02:44:58;4.70;99.90
23188;DHT22;11762;59.878;17.686;2022-10-31T02:47:49;4.70;99.90
23188;DHT22;11762;59.878;17.686;2022-10-31T02:50:41;4.70;99.90
23188;DHT22;11762;59.878;17.686;2022-10-31T02:53:32;4.70;99.90
23188;DHT22;11762;59.878;17.686;2022-10-31T02:56:19;4.70;99.90
23188;DHT22;11762;59.878;17.686;2022-10-31T02:59:07;4.70;99.90
23188;DHT22;11762;59.878;17.686;2022-10-31T03:02:06;4.70;99.90
23188;DHT22;11762;59.878;17.686;2022-10-31T03:05:15;4.70;99.90
23188;DHT22;11762;59.878;17.686;2022-10-31T03:08:14;4.70;99.90
23188;DHT22;11762;59.878;17.686;2022-10-31T03:11:08;4.70;99.90
23188;DHT22;11762;59.878;17.686;2022-10-31T03:14:00;4.80;99.90
23188;DHT22;11762;59.878;17.686;2022-10-31T03:16:53;4.80;99.90
23188;DHT22;11762;59.878;17.686;2022-10-31T03:19:43;4.90;99.90
23188;DHT22;11762;59.878;17.686;2022-10-31T03:22:33;4.90;99.90
23188;DHT22;11762;59.878;17.686;2022-10-31T03:25:22;5.00;99.90
23188;DHT22;11762;59.878;17.686;2022-10-31T03:28:12;5.00;99.90
23188;DHT22;11762;59.878;17.686;2022-10-31T03:31:00;5.00;99.90
23188;DHT22;11762;59.878;17.686;2022-10-31T03:33:49;5.10;99.90
23188;DHT22;11762;59.878;17.686;2022-10-31T03:36:40;5.20;99.90
23188;DHT22;11762;59.878;17.686;2022-10-31T03:39:29;5.20;99.90
23188;DHT22;11762;59.878;17.686;2022-10-31T03:42:21;5.20;99.90
23188;DHT22;11762;59.878;17.686;2022-10-31T03:45:12;5.30;99.90
23188;DHT22;11762;59.878;17.686;2022-10-31T03:48:00;5.30;99.90
23188;DHT22;11762;59.878;17.686;2022-10-31T03:50:55;5.30;99.90
23188;DHT22;11762;59.878;17.686;2022-10-31T03:53:47;5.40;99.90
23188;DHT22;11762;59.878;17.686;2022-10-31T03:56:41;5.40;99.90
23188;DHT22;11762;59.878;17.686;2022-10-31T03:59:34;5.30;99.90
23188;DHT22;11762;59.878;17.686;2022-10-31T04:02:26;5.30;99.90
23188;DHT22;11762;59.878;17.686;2022-10-31T04:05:16;5.30;99.90
23188;DHT22;11762;59.878;17.686;2022-10-31T04:08:07;5.30;99.90
23188;DHT22;11762;59.878;17.686;2022-10-31T04:10:56;5.30;99.90
23188;DHT22;11762;59.878;17.686;2022-10-31T04:13:46;5.20;99.90
23188;DHT22;11762;59.878;17.686;2022-10-31T04:16:36;5.20;99.90
23188;DHT22;11762;59.878;17.686;2022-10-31T04:19:24;5.20;99.90
23188;DHT22;11762;59.878;17.686;2022-10-31T04:22:11;5.20;99.90
23188;DHT22;11762;59.878;17.686;2022-10-31T04:24:59;5.10;99.90
23188;DHT22;11762;59.878;17.686;2022-10-31T04:27:46;5.10;99.90
23188;DHT22;11762;59.878;17.686;2022-10-31T04:30:33;5.10;99.90
23188;DHT22;11762;59.878;17.686;2022-10-31T04:33:22;5.10;99.90
23188;DHT22;11762;59.878;17.686;2022-10-31T04:36:10;5.10;99.90
23188;DHT22;11762;59.878;17.686;2022-10-31T04:38:57;5.10;99.90
23188;DHT22;11762;59.878;17.686;2022-10-31T04:41:44;5.10;99.90
23188;DHT22;11762;59.878;17.686;2022-10-31T04:44:31;5.10;99.90
23188;DHT22;11762;59.878;17.686;2022-10-31T04:47:19;5.10;99.90
23188;DHT22;11762;59.878;17.686;2022-10-31T04:50:08;5.10;99.90
23188;DHT22;11762;59.878;17.686;2022-10-31T04:52:55;5.20;99.90
23188;DHT22;11762;59.878;17.686;2022-10-31T04:55:43;5.20;99.90
23188;DHT22;11762;59.878;17.686;2022-10-31T04:58:30;5.30;99.90
23188;DHT22;11762;59.878;17.686;2022-10-31T05:01:17;5.40;99.90
23188;DHT22;11762;59.878;17.686;2022-10-31T05:04:05;5.40;99.90
23188;DHT22;11762;59.878;17.686;2022-10-31T05:06:53;5.30;99.90
23188;DHT22;11762;59.878;17.686;2022-10-31T05:09:41;5.40;99.90
23188;DHT22;11762;59.878;17.686;2022-10-31T05:12:28;5.40;99.90
23188;DHT22;11762;59.878;17.686;2022-10-31T05:15:16;5.40;99.90
23188;DHT22;11762;59.878;17.686;2022-10-31T05:18:04;5.50;99.90
23188;DHT22;11762;59.878;17.686;2022-10-31T05:20:52;5.50;99.90
23188;DHT22;11762;59.878;17.686;2022-10-31T05:23:40;5.50;99.90
23188;DHT22;11762;59.878;17.686;2022-10-31T05:26:28;5.60;99.90
23188;DHT22;11762;59.878;17.686;2022-10-31T05:29:15;5.70;99.90
23188;DHT22;11762;59.878;17.686;2022-10-31T05:32:02;5.70;99.90
23188;DHT22;11762;59.878;17.686;2022-10-31T05:34:50;5.70;99.90
23188;DHT22;11762;59.878;17.686;2022-10-31T05:37:38;5.80;99.90
23188;DHT22;11762;59.878;17.686;2022-10-31T05:40:27;5.80;99.90
23188;DHT22;11762;59.878;17.686;2022-10-31T05:43:14;5.90;99.90
23188;DHT22;11762;59.878;17.686;2022-10-31T05:46:02;5.90;99.90
23188;DHT22;11762;59.878;17.686;2022-10-31T05:48:49;5.90;99.90
23188;DHT22;11762;59.878;17.686;2022-10-31T05:51:36;6.00;99.90
23188;DHT22;11762;59.878;17.686;2022-10-31T05:54:24;6.00;99.90
23188;DHT22;11762;59.878;17.686;2022-10-31T05:57:13;6.10;99.90
23188;DHT22;11762;59.878;17.686;2022-10-31T06:00:00;6.10;99.90
23188;DHT22;11762;59.878;17.686;2022-10-31T06:02:47;6.20;99.90
23188;DHT22;11762;59.878;17.686;2022-10-31T06:05:35;6.20;99.90
23188;DHT22;11762;59.878;17.686;2022-10-31T06:08:22;6.30;99.90
23188;DHT22;11762;59.878;17.686;2022-10-31T06:11:10;6.30;99.90
23188;DHT22;11762;59.878;17.686;2022-10-31T06:13:58;6.40;99.90
23188;DHT22;11762;59.878;17.686;2022-10-31T06:16:46;6.50;99.90
23188;DHT22;11762;59.878;17.686;2022-10-31T06:19:33;6.50;99.90
23188;DHT22;11762;59.878;17.686;2022-10-31T06:22:20;6.50;99.90
23188;DHT22;11762;59.878;17.686;2022-10-31T06:25:08;6.60;99.90
23188;DHT22;11762;59.878;17.686;2022-10-31T06:27:55;6.60;99.90
23188;DHT22;11762;59.878;17.686;2022-10-31T06:30:45;6.70;99.90
23188;DHT22;11762;59.878;17.686;2022-10-31T06:33:33;6.70;99.90
23188;DHT22;11762;59.878;17.686;2022-10-31T06:36:20;6.80;99.90
23188;DHT22;11762;59.878;17.686;2022-10-31T06:39:07;6.90;99.90
23188;DHT22;11762;59.878;17.686;2022-10-31T06:41:55;6.90;99.90
23188;DHT22;11762;59.878;17.686;2022-10-31T06:44:42;7.00;99.90
23188;DHT22;11762;59.878;17.686;2022-10-31T06:47:31;7.00;99.90
23188;DHT22;11762;59.878;17.686;2022-10-31T06:50:18;7.10;99.90
23188;DHT22;11762;59.878;17.686;2022-10-31T06:53:05;7.10;99.90
23188;DHT22;11762;59.878;17.686;2022-10-31T06:55:53;7.00;99.90
23188;DHT22;11762;59.878;17.686;2022-10-31T06:58:41;7.10;99.90
23188;DHT22;11762;59.878;17.686;2022-10-31T07:01:29;7.10;99.90
23188;DHT22;11762;59.878;17.686;2022-10-31T07:04:17;7.00;99.90
23188;DHT22;11762;59.878;17.686;2022-10-31T07:07:05;7.10;99.90
23188;DHT22;11762;59.878;17.686;2022-10-31T07:09:52;7.10;99.90
23188;DHT22;11762;59.878;17.686;2022-10-31T07:12:39;7.10;99.90
23188;DHT22;11762;59.878;17.686;2022-10-31T07:15:28;7.10;99.90
23188;DHT22;11762;59.878;17.686;2022-10-31T07:18:16;7.00;99.90
23188;DHT22;11762;59.878;17.686;2022-10-31T07:21:05;7.00;99.90
23188;DHT22;11762;59.878;17.686;2022-10-31T07:23:52;7.10;99.90
23188;DHT22;11762;59.878;17.686;2022-10-31T07:26:40;7.10;99.90
23188;DHT22;11762;59.878;17.686;2022-10-31T07:29:28;7.10;99.90
23188;DHT22;11762;59.878;17.686;2022-10-31T07:32:15;7.10;99.90
23188;DHT22;11762;59.878;17.686;2022-10-31T07:35:03;7.10;99.90
23188;DHT22;11762;59.878;17.686;2022-10-31T07:37:52;7.10;99.90
23188;DHT22;11762;59.878;17.686;2022-10-31T07:40:39;7.20;99.90
23188;DHT22;11762;59.878;17.686;2022-10-31T07:43:27;7.30;99.90
23188;DHT22;11762;59.878;17.686;2022-10-31T07:46:14;7.40;99.90
23188;DHT22;11762;59.878;17.686;2022-10-31T07:49:01;7.50;99.90
23188;DHT22;11762;59.878;17.686;2022-10-31T07:51:49;7.60;99.90
23188;DHT22;11762;59.878;17.686;2022-10-31T07:54:37;7.70;99.90
23188;DHT22;11762;59.878;17.686;2022-10-31T07:57:25;7.80;99.90
23188;DHT22;11762;59.878;17.686;2022-10-31T08:00:12;7.90;99.90
23188;DHT22;11762;59.878;17.686;2022-10-31T08:03:00;7.90;99.90
23188;DHT22;11762;59.878;17.686;2022-10-31T08:05:48;8.00;99.90
23188;DHT22;11762;59.878;17.686;2022-10-31T08:08:35;8.00;99.90
23188;DHT22;11762;59.878;17.686;2022-10-31T08:11:24;8.10;99.90
23188;DHT22;11762;59.878;17.686;2022-10-31T08:14:11;8.20;99.90
23188;DHT22;11762;59.878;17.686;2022-10-31T08:16:59;8.20;99.90
23188;DHT22;11762;59.878;17.686;2022-10-31T08:19:46;8.30;99.90
23188;DHT22;11762;59.878;17.686;2022-10-31T08:22:34;8.40;99.90
23188;DHT22;11762;59.878;17.686;2022-10-31T08:25:21;8.40;99.90
23188;DHT22;11762;59.878;17.686;2022-10-31T08:28:10;8.40;99.90
23188;DHT22;11762;59.878;17.686;2022-10-31T08:30:58;8.50;99.90
23188;DHT22;11762;59.878;17.686;2022-10-31T08:33:45;8.40;99.90
23188;DHT22;11762;59.878;17.686;2022-10-31T08:36:33;8.50;99.90
23188;DHT22;11762;59.878;17.686;2022-10-31T08:39:20;8.50;99.90
23188;DHT22;11762;59.878;17.686;2022-10-31T08:42:08;8.60;99.90
23188;DHT22;11762;59.878;17.686;2022-10-31T08:44:56;8.60;99.90
23188;DHT22;11762;59.878;17.686;2022-10-31T08:47:44;8.60;99.90
23188;DHT22;11762;59.878;17.686;2022-10-31T08:50:32;8.60;99.90
23188;DHT22;11762;59.878;17.686;2022-10-31T08:53:20;8.70;99.90
23188;DHT22;11762;59.878;17.686;2022-10-31T08:56:08;8.70;99.90
23188;DHT22;11762;59.878;17.686;2022-10-31T08:58:55;8.70;99.90
23188;DHT22;11762;59.878;17.686;2022-10-31T09:01:44;8.80;99.90
23188;DHT22;11762;59.878;17.686;2022-10-31T09:04:32;8.80;99.90
23188;DHT22;11762;59.878;17.686;2022-10-31T09:07:19;8.80;99.90
23188;DHT22;11762;59.878;17.686;2022-10-31T09:10:07;8.90;99.90
23188;DHT22;11762;59.878;17.686;2022-10-31T09:12:55;8.90;99.90
23188;DHT22;11762;59.878;17.686;2022-10-31T09:15:44;9.00;99.90
23188;DHT22;11762;59.878;17.686;2022-10-31T09:18:33;9.00;99.90
23188;DHT22;11762;59.878;17.686;2022-10-31T09:21:21;9.00;99.90
23188;DHT22;11762;59.878;17.686;2022-10-31T09:24:08;9.10;99.90
23188;DHT22;11762;59.878;17.686;2022-10-31T09:26:55;9.10;99.90
23188;DHT22;11762;59.878;17.686;2022-10-31T09:29:43;9.00;99.90
23188;DHT22;11762;59.878;17.686;2022-10-31T09:32:30;9.10;99.90
23188;DHT22;11762;59.878;17.686;2022-10-31T09:35:19;9.10;99.90
23188;DHT22;11762;59.878;17.686;2022-10-31T09:38:09;9.20;99.90
23188;DHT22;11762;59.878;17.686;2022-10-31T09:41:13;9.30;99.90
23188;DHT22;11762;59.878;17.686;2022-10-31T09:44:10;9.30;99.90
23188;DHT22;11762;59.878;17.686;2022-10-31T09:47:06;9.30;99.90
23188;DHT22;11762;59.878;17.686;2022-10-31T09:50:09;9.40;99.90
23188;DHT22;11762;59.878;17.686;2022-10-31T09:53:03;9.40;99.90
23188;DHT22;11762;59.878;17.686;2022-10-31T09:55:52;9.50;99.90
23188;DHT22;11762;59.878;17.686;2022-10-31T09:58:43;9.50;99.90
23188;DHT22;11762;59.878;17.686;2022-10-31T10:01:45;9.60;99.90
23188;DHT22;11762;59.878;17.686;2022-10-31T10:04:40;9.60;99.90
23188;DHT22;11762;59.878;17.686;2022-10-31T10:07:38;9.70;99.90
23188;DHT22;11762;59.878;17.686;2022-10-31T10:10:40;9.70;99.90
23188;DHT22;11762;59.878;17.686;2022-10-31T10:13:47;9.80;99.90
23188;DHT22;11762;59.878;17.686;2022-10-31T10:16:49;9.90;99.90
23188;DHT22;11762;59.878;17.686;2022-10-31T10:22:57;10.00;99.90
23188;DHT22;11762;59.878;17.686;2022-10-31T10:25:55;10.00;99.90
23188;DHT22;11762;59.878;17.686;2022-10-31T10:28:48;10.10;99.90
23188;DHT22;11762;59.878;17.686;2022-10-31T10:31:42;10.30;99.90
23188;DHT22;11762;59.878;17.686;2022-10-31T10:34:36;10.40;99.90
23188;DHT22;11762;59.878;17.686;2022-10-31T10:37:29;10.50;99.90
23188;DHT22;11762;59.878;17.686;2022-10-31T10:40:20;10.60;99.90
23188;DHT22;11762;59.878;17.686;2022-10-31T10:43:20;10.70;99.90
23188;DHT22;11762;59.878;17.686;2022-10-31T10:46:19;10.70;99.90
23188;DHT22;11762;59.878;17.686;2022-10-31T10:49:31;10.80;99.90
23188;DHT22;11762;59.878;17.686;2022-10-31T10:52:28;10.90;99.90
23188;DHT22;11762;59.878;17.686;2022-10-31T10:55:28;11.00;99.90
23188;DHT22;11762;59.878;17.686;2022-10-31T10:58:18;11.10;99.90
23188;DHT22;11762;59.878;17.686;2022-10-31T11:01:11;11.10;99.90
23188;DHT22;11762;59.878;17.686;2022-10-31T11:03:59;11.20;99.90
23188;DHT22;11762;59.878;17.686;2022-10-31T11:06:57;11.20;99.90
23188;DHT22;11762;59.878;17.686;2022-10-31T11:09:44;11.30;99.90
23188;DHT22;11762;59.878;17.686;2022-10-31T11:12:33;11.30;99.90
23188;DHT22;11762;59.878;17.686;2022-10-31T11:15:24;11.30;99.90
23188;DHT22;11762;59.878;17.686;2022-10-31T11:18:20;11.30;99.90
23188;DHT22;11762;59.878;17.686;2022-10-31T11:21:20;11.40;99.90
23188;DHT22;11762;59.878;17.686;2022-10-31T11:24:15;11.40;99.90
23188;DHT22;11762;59.878;17.686;2022-10-31T11:27:13;11.40;99.90
23188;DHT22;11762;59.878;17.686;2022-10-31T11:30:09;11.40;99.90
23188;DHT22;11762;59.878;17.686;2022-10-31T11:32:58;11.50;99.90
23188;DHT22;11762;59.878;17.686;2022-10-31T11:35:46;11.60;99.90
23188;DHT22;11762;59.878;17.686;2022-10-31T11:38:39;11.60;99.90
23188;DHT22;11762;59.878;17.686;2022-10-31T11:41:29;11.60;99.90
23188;DHT22;11762;59.878;17.686;2022-10-31T11:44:19;11.70;99.90
23188;DHT22;11762;59.878;17.686;2022-10-31T11:47:13;11.80;99.90
23188;DHT22;11762;59.878;17.686;2022-10-31T11:50:10;11.90;99.90
23188;DHT22;11762;59.878;17.686;2022-10-31T11:52:58;12.00;99.90
23188;DHT22;11762;59.878;17.686;2022-10-31T11:55:46;12.00;99.90
23188;DHT22;11762;59.878;17.686;2022-10-31T11:58:34;12.00;99.90
23188;DHT22;11762;59.878;17.686;2022-10-31T12:01:24;12.00;99.90
23188;DHT22;11762;59.878;17.686;2022-10-31T12:04:13;12.10;99.90
23188;DHT22;11762;59.878;17.686;2022-10-31T12:07:03;12.10;99.90
23188;DHT22;11762;59.878;17.686;2022-10-31T12:09:50;12.10;99.90
23188;DHT22;11762;59.878;17.686;2022-10-31T12:12:55;12.20;99.90
23188;DHT22;11762;59.878;17.686;2022-10-31T12:15:49;12.20;99.90
23188;DHT22;11762;59.878;17.686;2022-10-31T12:18:49;12.20;99.90
23188;DHT22;11762;59.878;17.686;2022-10-31T12:21:59;12.20;99.90
23188;DHT22;11762;59.878;17.686;2022-10-31T12:25:09;12.20;99.90
23188;DHT22;11762;59.878;17.686;2022-10-31T12:31:33;12.30;99.90
23188;DHT22;11762;59.878;17.686;2022-10-31T12:34:38;12.40;99.90
23188;DHT22;11762;59.878;17.686;2022-10-31T12:37:36;12.40;99.90
23188;DHT22;11762;59.878;17.686;2022-10-31T12:40:53;12.40;99.90
23188;DHT22;11762;59.878;17.686;2022-10-31T12:43:47;12.40;99.90
23188;DHT22;11762;59.878;17.686;2022-10-31T12:46:53;12.50;99.90
23188;DHT22;11762;59.878;17.686;2022-10-31T12:49:52;12.50;99.90
23188;DHT22;11762;59.878;17.686;2022-10-31T12:52:48;12.50;99.90
23188;DHT22;11762;59.878;17.686;2022-10-31T12:55:47;12.50;99.90
23188;DHT22;11762;59.878;17.686;2022-10-31T12:58:44;12.60;99.90
23188;DHT22;11762;59.878;17.686;2022-10-31T13:01:35;12.60;99.90
23188;DHT22;11762;59.878;17.686;2022-10-31T13:04:35;12.60;99.90
23188;DHT22;11762;59.878;17.686;2022-10-31T13:07:25;12.60;99.90
23188;DHT22;11762;59.878;17.686;2022-10-31T13:10:18;12.60;99.90
23188;DHT22;11762;59.878;17.686;2022-10-31T13:13:10;12.60;99.90
23188;DHT22;11762;59.878;17.686;2022-10-31T13:16:03;12.60;99.90
23188;DHT22;11762;59.878;17.686;2022-10-31T13:18:54;12.60;99.90
23188;DHT22;11762;59.878;17.686;2022-10-31T13:21:49;12.60;99.90
23188;DHT22;11762;59.878;17.686;2022-10-31T13:24:43;12.60;99.90
23188;DHT22;11762;59.878;17.686;2022-10-31T13:27:44;12.60;99.90
23188;DHT22;11762;59.878;17.686;2022-10-31T13:30:39;12.60;99.90
23188;DHT22;11762;59.878;17.686;2022-10-31T13:33:31;12.50;99.90
23188;DHT22;11762;59.878;17.686;2022-10-31T13:36:26;12.50;99.90
23188;DHT22;11762;59.878;17.686;2022-10-31T13:39:22;12.40;99.90
23188;DHT22;11762;59.878;17.686;2022-10-31T13:42:15;12.30;99.90
23188;DHT22;11762;59.878;17.686;2022-10-31T13:45:12;12.20;99.90
23188;DHT22;11762;59.878;17.686;2022-10-31T13:48:16;12.10;99.90
23188;DHT22;11762;59.878;17.686;2022-10-31T13:51:07;12.00;99.90
23188;DHT22;11762;59.878;17.686;2022-10-31T13:53:59;12.00;99.90
23188;DHT22;11762;59.878;17.686;2022-10-31T13:56:49;11.90;99.90
23188;DHT22;11762;59.878;17.686;2022-10-31T13:59:37;11.90;99.90
23188;DHT22;11762;59.878;17.686;2022-10-31T14:02:26;11.90;99.90
23188;DHT22;11762;59.878;17.686;2022-10-31T14:05:22;11.80;99.90
23188;DHT22;11762;59.878;17.686;2022-10-31T18:05:04;9.60;99.90
23188;DHT22;11762;59.878;17.686;2022-10-31T18:07:52;9.60;99.90
23188;DHT22;11762;59.878;17.686;2022-10-31T18:10:40;9.60;99.90
23188;DHT22;11762;59.878;17.686;2022-10-31T18:13:27;9.60;99.90
23188;DHT22;11762;59.878;17.686;2022-10-31T18:16:16;9.60;99.90
23188;DHT22;11762;59.878;17.686;2022-10-31T18:19:04;9.50;99.90
23188;DHT22;11762;59.878;17.686;2022-10-31T18:21:52;9.50;99.90
23188;DHT22;11762;59.878;17.686;2022-10-31T18:24:40;9.50;99.90
23188;DHT22;11762;59.878;17.686;2022-10-31T18:27:27;9.50;99.90
23188;DHT22;11762;59.878;17.686;2022-10-31T18:30:15;9.50;99.90
23188;DHT22;11762;59.878;17.686;2022-10-31T18:33:03;9.50;99.90
23188;DHT22;11762;59.878;17.686;2022-10-31T18:35:50;9.40;99.90
23188;DHT22;11762;59.878;17.686;2022-10-31T18:38:39;9.40;99.90
23188;DHT22;11762;59.878;17.686;2022-10-31T18:41:29;9.30;99.90
23188;DHT22;11762;59.878;17.686;2022-10-31T18:44:17;9.30;99.90
23188;DHT22;11762;59.878;17.686;2022-10-31T18:47:04;9.30;99.90
23188;DHT22;11762;59.878;17.686;2022-10-31T18:49:52;9.30;99.90
23188;DHT22;11762;59.878;17.686;2022-10-31T18:52:39;9.20;99.90
23188;DHT22;11762;59.878;17.686;2022-10-31T18:55:28;9.30;99.90
23188;DHT22;11762;59.878;17.686;2022-10-31T18:58:15;9.20;99.90
23188;DHT22;11762;59.878;17.686;2022-10-31T19:01:05;9.20;99.90
23188;DHT22;11762;59.878;17.686;2022-10-31T19:03:54;9.20;99.90
23188;DHT22;11762;59.878;17.686;2022-10-31T19:06:41;9.20;99.90
23188;DHT22;11762;59.878;17.686;2022-10-31T19:09:29;9.20;99.90
23188;DHT22;11762;59.878;17.686;2022-10-31T19:12:18;9.10;99.90
23188;DHT22;11762;59.878;17.686;2022-10-31T19:15:06;9.10;99.90
23188;DHT22;11762;59.878;17.686;2022-10-31T19:17:53;9.10;99.90
23188;DHT22;11762;59.878;17.686;2022-10-31T19:20:41;9.00;99.90
23188;DHT22;11762;59.878;17.686;2022-10-31T19:23:28;9.00;99.90
23188;DHT22;11762;59.878;17.686;2022-10-31T19:26:15;9.00;99.90
23188;DHT22;11762;59.878;17.686;2022-10-31T19:29:04;9.00;99.90
23188;DHT22;11762;59.878;17.686;2022-10-31T19:31:51;9.00;99.90
23188;DHT22;11762;59.878;17.686;2022-10-31T19:34:39;8.90;99.90
23188;DHT22;11762;59.878;17.686;2022-10-31T19:37:26;8.90;99.90
23188;DHT22;11762;59.878;17.686;2022-10-31T19:40:13;8.90;99.90
23188;DHT22;11762;59.878;17.686;2022-10-31T19:43:01;8.90;99.90
23188;DHT22;11762;59.878;17.686;2022-10-31T19:45:54;8.80;99.90
23188;DHT22;11762;59.878;17.686;2022-10-31T19:48:41;8.80;99.90
23188;DHT22;11762;59.878;17.686;2022-10-31T19:51:29;8.80;99.90
23188;DHT22;11762;59.878;17.686;2022-10-31T19:54:16;8.70;99.90
23188;DHT22;11762;59.878;17.686;2022-10-31T19:57:04;8.70;99.90
23188;DHT22;11762;59.878;17.686;2022-10-31T19:59:51;8.70;99.90
23188;DHT22;11762;59.878;17.686;2022-10-31T20:02:40;8.70;99.90
23188;DHT22;11762;59.878;17.686;2022-10-31T20:05:27;8.70;99.90
23188;DHT22;11762;59.878;17.686;2022-10-31T20:08:16;8.70;99.90
23188;DHT22;11762;59.878;17.686;2022-10-31T20:11:04;8.70;99.90
23188;DHT22;11762;59.878;17.686;2022-10-31T20:13:53;8.70;99.90
23188;DHT22;11762;59.878;17.686;2022-10-31T20:16:41;8.60;99.90
23188;DHT22;11762;59.878;17.686;2022-10-31T20:19:29;8.60;99.90
23188;DHT22;11762;59.878;17.686;2022-10-31T20:22:17;8.60;99.90
23188;DHT22;11762;59.878;17.686;2022-10-31T20:25:05;8.50;99.90
23188;DHT22;11762;59.878;17.686;2022-10-31T20:27:52;8.50;99.90
23188;DHT22;11762;59.878;17.686;2022-10-31T20:30:39;8.50;99.90
23188;DHT22;11762;59.878;17.686;2022-10-31T20:33:27;8.50;99.90
23188;DHT22;11762;59.878;17.686;2022-10-31T20:36:16;8.50;99.90
23188;DHT22;11762;59.878;17.686;2022-10-31T20:39:05;8.50;99.90
23188;DHT22;11762;59.878;17.686;2022-10-31T20:41:53;8.50;99.90
23188;DHT22;11762;59.878;17.686;2022-10-31T20:44:40;8.60;99.90
23188;DHT22;11762;59.878;17.686;2022-10-31T20:47:27;8.70;99.90
23188;DHT22;11762;59.878;17.686;2022-10-31T20:50:15;8.70;99.90
23188;DHT22;11762;59.878;17.686;2022-10-31T20:53:03;8.80;99.90
23188;DHT22;11762;59.878;17.686;2022-10-31T20:55:59;8.90;99.90
23188;DHT22;11762;59.878;17.686;2022-10-31T20:58:47;9.00;99.90
23188;DHT22;11762;59.878;17.686;2022-10-31T21:01:35;9.10;99.90
23188;DHT22;11762;59.878;17.686;2022-10-31T21:04:23;9.10;99.90
23188;DHT22;11762;59.878;17.686;2022-10-31T21:07:10;9.10;99.90
23188;DHT22;11762;59.878;17.686;2022-10-31T21:09:59;9.20;99.90
23188;DHT22;11762;59.878;17.686;2022-10-31T21:12:46;9.30;99.90
23188;DHT22;11762;59.878;17.686;2022-10-31T21:15:34;9.30;99.90
23188;DHT22;11762;59.878;17.686;2022-10-31T21:18:21;9.40;99.90
23188;DHT22;11762;59.878;17.686;2022-10-31T21:21:10;9.40;99.90
23188;DHT22;11762;59.878;17.686;2022-10-31T21:23:59;9.40;99.90
23188;DHT22;11762;59.878;17.686;2022-10-31T21:26:50;9.50;99.90
23188;DHT22;11762;59.878;17.686;2022-10-31T21:29:38;9.50;99.90
23188;DHT22;11762;59.878;17.686;2022-10-31T21:32:26;9.60;99.90
23188;DHT22;11762;59.878;17.686;2022-10-31T21:35:14;9.60;99.90
23188;DHT22;11762;59.878;17.686;2022-10-31T21:38:01;9.50;99.90
23188;DHT22;11762;59.878;17.686;2022-10-31T21:40:48;9.40;99.90
23188;DHT22;11762;59.878;17.686;2022-10-31T21:43:38;9.40;99.90
23188;DHT22;11762;59.878;17.686;2022-10-31T21:46:27;9.20;99.90
23188;DHT22;11762;59.878;17.686;2022-10-31T21:49:15;9.20;99.90
23188;DHT22;11762;59.878;17.686;2022-10-31T21:52:03;9.00;99.90
23188;DHT22;11762;59.878;17.686;2022-10-31T21:54:50;9.00;99.90